Time;durP1;ratioP1;P1;durP2;ratioP2;P2;SDS_P1;SDS_P2;PMS_P1;PMS_P2;Temp;Humidity;BMP_temperature;BMP_pressure;BME280_temperature;BME280_humidity;BME280_pressure;Samples;Min_cycle;Max_cycle;Signal;HPM_P1;HPM_P2
2021/09/22 00:00:54;;;;;;;11.82;6.10;;;12.60;99.90;;;;;;8358824;28;20396;-74
2021/09/22 00:04:56;;;;;;;10.70;6.45;;;12.50;99.90;;;;;;8358306;28;20416;-74
2021/09/22 00:08:58;;;;;;;10.23;6.85;;;12.50;99.90;;;;;;8360692;28;20056;-75
2021/09/22 00:13:00;;;;;;;10.88;6.43;;;12.50;99.90;;;;;;8356002;28;20492;-74
2021/09/22 00:17:02;;;;;;;11.45;6.68;;;12.40;99.90;;;;;;8357896;28;20075;-75
2021/09/22 00:21:04;;;;;;;12.00;7.10;;;12.40;99.90;;;;;;8351972;28;20045;-74
2021/09/22 00:25:07;;;;;;;13.00;7.30;;;12.40;99.90;;;;;;8352992;28;20052;-74
2021/09/22 00:29:09;;;;;;;12.52;7.40;;;12.40;99.90;;;;;;8355312;28;20048;-74
2021/09/22 00:33:10;;;;;;;11.02;7.07;;;12.30;99.90;;;;;;8356006;28;20056;-74
2021/09/22 00:37:12;;;;;;;13.23;8.00;;;12.20;99.90;;;;;;8358527;28;20615;-74
2021/09/22 00:41:14;;;;;;;13.45;7.85;;;12.20;99.90;;;;;;8357131;28;20056;-74
2021/09/22 00:45:17;;;;;;;15.10;8.23;;;12.20;99.90;;;;;;8366707;28;20405;-75
2021/09/22 00:49:19;;;;;;;13.73;7.22;;;12.10;99.90;;;;;;8358821;28;20044;-74
2021/09/22 00:53:21;;;;;;;14.15;7.88;;;12.10;99.90;;;;;;8352065;28;20057;-74
2021/09/22 00:57:22;;;;;;;12.70;7.75;;;12.10;99.90;;;;;;8354794;28;20045;-74
2021/09/22 01:01:24;;;;;;;14.88;9.10;;;12.00;99.90;;;;;;8352568;28;20040;-73
2021/09/22 01:05:29;;;;;;;12.90;7.90;;;12.00;99.90;;;;;;8350557;28;20234;-74
2021/09/22 01:09:31;;;;;;;16.02;8.30;;;12.00;99.90;;;;;;8356848;28;20056;-74
2021/09/22 01:13:33;;;;;;;12.13;7.15;;;11.90;99.90;;;;;;8353994;28;20075;-74
2021/09/22 01:17:35;;;;;;;12.00;7.53;;;11.90;99.90;;;;;;8352757;28;20815;-73
2021/09/22 01:21:37;;;;;;;14.05;7.90;;;11.90;99.90;;;;;;8351288;28;20053;-74
2021/09/22 01:25:41;;;;;;;11.80;7.40;;;11.90;99.90;;;;;;8355496;28;20052;-74
2021/09/22 01:29:45;;;;;;;14.95;8.65;;;11.80;99.90;;;;;;8353905;28;20744;-74
2021/09/22 01:33:47;;;;;;;16.08;8.20;;;11.80;99.90;;;;;;8351453;28;20049;-74
2021/09/22 01:37:49;;;;;;;12.75;7.30;;;11.70;99.90;;;;;;8348635;28;20059;-74
2021/09/22 01:41:51;;;;;;;13.70;8.50;;;11.70;99.90;;;;;;8355478;28;20056;-74
2021/09/22 01:45:53;;;;;;;13.80;7.90;;;11.70;99.90;;;;;;8351990;28;20063;-73
2021/09/22 01:50:04;;;;;;;14.63;9.33;;;11.60;99.90;;;;;;8353537;28;20469;-74
2021/09/22 01:54:06;;;;;;;18.60;9.73;;;11.60;99.90;;;;;;8355750;28;20074;-74
2021/09/22 01:58:07;;;;;;;16.75;9.70;;;11.50;99.90;;;;;;8358172;28;20045;-74
2021/09/22 02:02:09;;;;;;;13.00;7.93;;;11.50;99.90;;;;;;8362279;28;20045;-74
2021/09/22 02:06:12;;;;;;;14.73;8.80;;;11.50;99.90;;;;;;8359217;28;20040;-74
2021/09/22 02:10:14;;;;;;;11.43;7.60;;;11.40;99.90;;;;;;8361821;28;20056;-74
2021/09/22 02:14:15;;;;;;;14.05;8.02;;;11.40;99.90;;;;;;8361513;28;20052;-74
2021/09/22 02:18:17;;;;;;;13.13;8.00;;;11.40;99.90;;;;;;8359562;28;20045;-75
2021/09/22 02:22:19;;;;;;;14.77;8.63;;;11.30;99.90;;;;;;8354426;28;20083;-74
2021/09/22 02:26:20;;;;;;;17.67;10.38;;;11.30;99.90;;;;;;8360040;28;20037;-74
2021/09/22 02:30:23;;;;;;;18.15;10.15;;;11.20;99.90;;;;;;8360102;28;20049;-73
2021/09/22 02:34:25;;;;;;;15.23;9.80;;;11.20;99.90;;;;;;8358566;28;20787;-74
2021/09/22 02:38:27;;;;;;;20.90;12.05;;;11.20;99.90;;;;;;8362900;28;20056;-74
2021/09/22 02:42:28;;;;;;;20.17;12.40;;;11.20;99.90;;;;;;8357752;28;20045;-74
2021/09/22 02:46:30;;;;;;;21.48;12.00;;;11.10;99.90;;;;;;8355385;28;20406;-74
2021/09/22 02:50:32;;;;;;;22.48;11.77;;;11.10;99.90;;;;;;8358665;28;20118;-74
2021/09/22 02:54:34;;;;;;;18.77;10.23;;;11.10;99.90;;;;;;8356402;28;20090;-74
2021/09/22 02:58:36;;;;;;;15.50;8.90;;;11.10;99.90;;;;;;8358137;28;20075;-74
2021/09/22 03:02:38;;;;;;;16.50;9.38;;;11.00;99.90;;;;;;8359936;28;20045;-75
2021/09/22 03:06:40;;;;;;;17.58;9.98;;;11.00;99.90;;;;;;8360810;28;20071;-74
2021/09/22 03:10:42;;;;;;;19.13;10.23;;;11.00;99.90;;;;;;8356959;28;20064;-74
2021/09/22 03:14:43;;;;;;;19.33;10.50;;;10.90;99.90;;;;;;8355432;28;20064;-74
2021/09/22 03:18:45;;;;;;;20.63;11.18;;;10.90;99.90;;;;;;8359201;28;20060;-74
2021/09/22 03:22:47;;;;;;;23.13;11.90;;;10.90;99.90;;;;;;8355439;28;20067;-74
2021/09/22 03:26:49;;;;;;;18.33;10.15;;;10.90;99.90;;;;;;8360091;28;20473;-74
2021/09/22 03:30:51;;;;;;;18.58;9.77;;;10.90;99.90;;;;;;8360387;28;20048;-74
2021/09/22 03:34:53;;;;;;;20.63;10.93;;;10.80;99.90;;;;;;8356553;28;20060;-74
2021/09/22 03:38:55;;;;;;;18.20;10.88;;;10.80;99.90;;;;;;8361250;28;20554;-74
2021/09/22 03:42:57;;;;;;;16.65;9.73;;;10.80;99.90;;;;;;8357747;28;20467;-74
2021/09/22 03:46:58;;;;;;;15.65;8.77;;;10.80;99.90;;;;;;8360714;28;20060;-73
2021/09/22 03:51:00;;;;;;;16.70;10.27;;;10.70;99.90;;;;;;8360204;28;20438;-74
2021/09/22 03:55:03;;;;;;;;;;;10.70;99.90;;;;;;8358653;28;19935;-74
2021/09/22 03:59:04;;;;;;;;;;;10.60;99.90;;;;;;8354273;28;19925;-74
2021/09/22 04:03:07;;;;;;;;;;;10.60;99.90;;;;;;8355081;28;19929;-74
2021/09/22 04:07:09;;;;;;;;;;;10.60;99.90;;;;;;8355483;28;20019;-73
2021/09/22 04:11:10;;;;;;;;;;;10.50;99.90;;;;;;8359191;28;20422;-74
2021/09/22 04:15:12;;;;;;;;;;;10.50;99.90;;;;;;8356889;28;19929;-73
2021/09/22 04:19:14;;;;;;;;;;;10.50;99.90;;;;;;8355164;28;19925;-73
2021/09/22 04:23:16;;;;;;;;;;;10.50;99.90;;;;;;8345267;28;19937;-73
2021/09/22 04:27:18;;;;;;;;;;;10.40;99.90;;;;;;8353754;28;20304;-74
2021/09/22 04:31:20;;;;;;;;;;;10.40;99.90;;;;;;8353618;28;20235;-73
2021/09/22 04:35:21;;;;;;;;;;;10.40;99.90;;;;;;8353922;28;19925;-73
2021/09/22 04:39:23;;;;;;;;;;;10.40;99.90;;;;;;8356616;28;19936;-74
2021/09/22 04:43:25;;;;;;;;;;;10.40;99.90;;;;;;8356069;28;19925;-74
2021/09/22 04:47:27;;;;;;;;;;;10.30;99.90;;;;;;8353760;28;19951;-73
2021/09/22 04:51:29;;;;;;;;;;;10.30;99.90;;;;;;8350957;28;19978;-73
2021/09/22 04:55:30;;;;;;;;;;;10.20;99.90;;;;;;8352569;28;19936;-73
2021/09/22 04:59:32;;;;;;;;;;;10.20;99.90;;;;;;8355407;28;19986;-73
2021/09/22 05:03:34;;;;;;;;;;;10.20;99.90;;;;;;8352694;28;19925;-73
2021/09/22 05:07:36;;;;;;;;;;;10.20;99.90;;;;;;8355379;28;20300;-74
2021/09/22 05:11:40;;;;;;;;;;;10.10;99.90;;;;;;8355573;28;20434;-74
2021/09/22 05:15:42;;;;;;;;;;;10.10;99.90;;;;;;8357623;28;19970;-73
2021/09/22 05:19:43;;;;;;;;;;;10.10;99.90;;;;;;8354999;28;20347;-74
2021/09/22 05:23:45;;;;;;;;;;;10.10;99.90;;;;;;8350509;28;20335;-74
2021/09/22 05:27:47;;;;;;;;;;;10.10;99.90;;;;;;8357730;28;19925;-73
2021/09/22 05:31:48;;;;;;;;;;;10.00;99.90;;;;;;8350143;28;19951;-73
2021/09/22 05:35:50;;;;;;;;;;;10.00;99.90;;;;;;8351277;28;20371;-74
2021/09/22 05:39:52;;;;;;;;;;;10.00;99.90;;;;;;8363018;28;19925;-73
2021/09/22 05:43:54;;;;;;;;;;;10.00;99.90;;;;;;8339746;28;19932;-73
2021/09/22 05:47:55;;;;;;;;;;;10.00;99.90;;;;;;8355787;28;19925;-73
2021/09/22 05:51:57;;;;;;;;;;;10.00;99.90;;;;;;8352509;28;20288;-73
2021/09/22 05:55:59;;;;;;;;;;;10.00;99.90;;;;;;8353241;28;19924;-74
2021/09/22 06:00:04;;;;;;;;;;;10.00;99.90;;;;;;8345734;28;19932;-74
2021/09/22 06:04:06;;;;;;;;;;;10.10;99.90;;;;;;8351788;28;19933;-73
2021/09/22 06:08:08;;;;;;;;;;;10.10;99.90;;;;;;8351751;28;19933;-74
2021/09/22 06:12:10;;;;;;;;;;;10.10;99.90;;;;;;8353448;28;19936;-73
2021/09/22 06:16:11;;;;;;;;;;;10.10;99.90;;;;;;8346309;28;20323;-73
2021/09/22 06:20:13;;;;;;;;;;;10.10;99.90;;;;;;8346986;28;19943;-73
2021/09/22 06:24:19;;;;;;;;;;;10.10;99.90;;;;;;8353266;28;19932;-73
2021/09/22 06:28:20;;;;;;;;;;;10.20;99.90;;;;;;8355625;28;19925;-73
2021/09/22 06:32:22;;;;;;;;;;;10.20;99.90;;;;;;8356567;28;20273;-73
2021/09/22 06:36:24;;;;;;;;;;;10.20;99.90;;;;;;8350228;28;19929;-73
2021/09/22 06:40:25;;;;;;;;;;;10.30;99.90;;;;;;8362766;28;20385;-73
2021/09/22 06:44:27;;;;;;;;;;;10.30;99.90;;;;;;8349595;28;20264;-74
2021/09/22 06:48:29;;;;;;;;;;;10.40;99.90;;;;;;8350462;28;20288;-74
2021/09/22 06:52:31;;;;;;;;;;;10.50;99.90;;;;;;8358144;28;19929;-73
2021/09/22 06:56:32;;;;;;;;;;;10.60;99.90;;;;;;8359299;28;20016;-74
2021/09/22 07:00:36;;;;;;;;;;;10.70;99.90;;;;;;8356167;28;20035;-73
2021/09/22 07:04:38;;;;;;;;;;;10.80;99.90;;;;;;8357459;28;20010;-73
2021/09/22 07:08:40;;;;;;;;;;;10.90;99.90;;;;;;8356112;28;20296;-73
2021/09/22 07:12:42;;;;;;;;;;;11.00;99.90;;;;;;8357148;28;20399;-74
2021/09/22 07:16:44;;;;;;;;;;;11.10;99.90;;;;;;8360783;28;20292;-73
2021/09/22 07:20:48;;;;;;;24.05;14.13;;;11.20;99.90;;;;;;8352189;28;19925;-73
2021/09/22 07:24:50;;;;;;;24.42;14.93;;;11.30;99.90;;;;;;8333027;28;19921;-74
2021/09/22 07:28:52;;;;;;;26.48;14.25;;;11.40;99.90;;;;;;8324461;28;20045;-74
2021/09/22 07:32:54;;;;;;;25.67;14.50;;;11.50;99.90;;;;;;8328952;28;20060;-71
2021/09/22 07:36:56;;;;;;;23.95;13.95;;;11.70;99.90;;;;;;8334198;28;20054;-72
2021/09/22 07:40:58;;;;;;;27.35;15.25;;;11.80;99.90;;;;;;8332848;28;20045;-71
2021/09/22 07:45:00;;;;;;;21.27;12.02;;;11.90;99.90;;;;;;8336964;28;20076;-71
2021/09/22 07:49:02;;;;;;;22.73;14.10;;;12.00;99.90;;;;;;8334649;28;20068;-71
2021/09/22 07:53:04;;;;;;;15.52;9.77;;;12.20;99.90;;;;;;8335219;28;20111;-72
2021/09/22 07:57:07;;;;;;;19.48;11.07;;;12.30;99.90;;;;;;8342863;28;20060;-71
2021/09/22 08:01:12;;;;;;;17.52;10.80;;;12.50;99.90;;;;;;8335853;28;20064;-71
2021/09/22 08:05:14;;;;;;;20.17;10.68;;;12.60;99.90;;;;;;8332188;28;20180;-73
2021/09/22 08:09:17;;;;;;;26.13;16.27;;;12.80;99.90;;;;;;8341577;28;20049;-73
2021/09/22 08:13:19;;;;;;;22.75;14.00;;;12.90;99.90;;;;;;8331259;28;20053;-73
2021/09/22 08:17:21;;;;;;;24.70;15.15;;;13.00;99.90;;;;;;8333080;28;20052;-74
2021/09/22 08:21:23;;;;;;;29.55;17.63;;;13.20;99.90;;;;;;8329844;28;20224;-73
2021/09/22 08:25:25;;;;;;;31.27;18.70;;;13.30;99.90;;;;;;8333523;28;20038;-73
2021/09/22 08:29:27;;;;;;;32.78;19.15;;;13.50;99.90;;;;;;8332429;28;20155;-74
2021/09/22 08:33:29;;;;;;;28.88;17.27;;;13.60;99.90;;;;;;8330950;28;20069;-73
2021/09/22 08:37:30;;;;;;;32.00;17.80;;;13.70;99.90;;;;;;8338556;28;19924;-73
2021/09/22 08:41:32;;;;;;;33.75;17.45;;;13.80;99.90;;;;;;8335833;28;19927;-74
2021/09/22 08:45:36;;;;;;;;;;;14.00;99.90;;;;;;8329632;28;20620;-74
2021/09/22 08:49:40;;;;;;;;;;;14.20;99.90;;;;;;8335388;28;20059;-73
2021/09/22 08:53:42;;;;;;;;;;;14.40;99.90;;;;;;8339595;28;20320;-73
2021/09/22 08:57:44;;;;;;;;;;;14.50;99.90;;;;;;8331039;28;19929;-73
2021/09/22 09:02:04;;;;;;;;;;;14.70;99.90;;;;;;8331997;28;19967;-73
2021/09/22 09:06:24;;;;;;;32.67;17.77;;;14.80;99.90;;;;;;8323812;28;19968;-73
2021/09/22 09:10:29;;;;;;;29.08;15.35;;;14.90;99.90;;;;;;8328558;28;20041;-73
2021/09/22 09:14:34;;;;;;;27.23;16.45;;;15.00;99.90;;;;;;8331319;28;20357;-73
2021/09/22 09:18:47;;;;;;;30.83;17.92;;;15.10;99.90;;;;;;8330836;28;20053;-74
2021/09/22 09:23:01;;;;;;;24.35;15.57;;;15.20;99.90;;;;;;8333779;28;20041;-73
2021/09/22 09:27:06;;;;;;;25.88;15.00;;;15.40;99.90;;;;;;8330615;28;20338;-73
2021/09/22 09:31:10;;;;;;;22.92;13.35;;;15.50;99.90;;;;;;8322440;28;20144;-73
2021/09/22 09:35:17;;;;;;;28.05;15.70;;;15.70;99.90;;;;;;8320738;28;20060;-73
2021/09/22 09:39:23;;;;;;;27.90;16.15;;;15.80;99.90;;;;;;8325588;28;20049;-73
2021/09/22 09:43:25;;;;;;;26.87;17.50;;;16.00;99.90;;;;;;8324528;28;20056;-73
2021/09/22 09:47:26;;;;;;;27.25;17.05;;;16.10;99.90;;;;;;8323655;28;20480;-73
2021/09/22 09:51:46;;;;;;;24.95;15.50;;;16.20;99.90;;;;;;8324994;28;19920;-73
2021/09/22 09:55:47;;;;;;;25.33;14.57;;;16.30;99.90;;;;;;8337017;28;20504;-73
2021/09/22 09:59:50;;;;;;;;;;;16.40;99.90;;;;;;8327203;28;20061;-73
2021/09/22 10:03:52;;;;;;;;;;;16.50;99.90;;;;;;8322380;28;19920;-73
2021/09/22 10:07:54;;;;;;;;;;;16.70;99.90;;;;;;8320733;28;20412;-73
2021/09/22 10:11:55;;;;;;;;;;;16.80;99.90;;;;;;8325941;28;20292;-73
2021/09/22 10:15:57;;;;;;;;;;;16.90;99.90;;;;;;8322554;28;19932;-73
2021/09/22 10:20:00;;;;;;;;;;;17.00;99.90;;;;;;8331241;28;19959;-73
2021/09/22 10:24:03;;;;;;;;;;;17.20;99.90;;;;;;8324908;28;19921;-73
2021/09/22 10:28:05;;;;;;;;;;;17.30;99.90;;;;;;8327677;28;19984;-73
2021/09/22 10:32:07;;;;;;;;;;;17.40;99.90;;;;;;8324787;28;19974;-73
2021/09/22 10:36:09;;;;;;;;;;;17.40;99.90;;;;;;8327318;28;19921;-73
2021/09/22 10:40:18;;;;;;;;;;;17.60;99.90;;;;;;8328167;28;19925;-73
2021/09/22 10:44:36;;;;;;;;;;;17.70;99.90;;;;;;8338674;28;19932;-74
2021/09/22 10:48:37;;;;;;;;;;;17.80;99.90;;;;;;8326304;28;20331;-74
2021/09/22 10:52:40;;;;;;;;;;;17.90;99.90;;;;;;8328727;28;19936;-73
2021/09/22 10:56:49;;;;;;;;;;;18.00;99.90;;;;;;8332646;28;19928;-73
2021/09/22 11:00:51;;;;;;;;;;;18.10;99.90;;;;;;8328350;28;19924;-73
2021/09/22 11:04:54;;;;;;;;;;;18.20;99.90;;;;;;8325549;28;20281;-73
2021/09/22 11:09:04;;;;;;;;;;;18.30;99.90;;;;;;8327762;28;19921;-74
2021/09/22 11:13:28;;;;;;;;;;;18.40;99.90;;;;;;8326795;28;19924;-74
2021/09/22 11:17:30;;;;;;;;;;;18.50;99.90;;;;;;8328892;28;19921;-73
2021/09/22 11:21:36;;;;;;;;;;;18.60;99.90;;;;;;8332690;28;19925;-73
2021/09/22 11:25:38;;;;;;;;;;;18.70;99.90;;;;;;8332229;28;20306;-73
2021/09/22 11:29:41;;;;;;;;;;;18.70;99.90;;;;;;8329503;28;19925;-73
2021/09/22 11:33:43;;;;;;;;;;;18.80;99.90;;;;;;8327581;28;19929;-73
2021/09/22 11:37:48;;;;;;;;;;;18.90;99.90;;;;;;8325959;28;19925;-74
2021/09/22 11:41:53;;;;;;;;;;;19.00;99.90;;;;;;8333010;28;19921;-73
2021/09/22 11:45:58;;;;;;;;;;;19.00;99.90;;;;;;8328693;28;19986;-74
2021/09/22 11:50:00;;;;;;;;;;;19.10;99.90;;;;;;8326610;28;19925;-73
2021/09/22 11:54:02;;;;;;;;;;;19.10;99.90;;;;;;8340609;28;19936;-74
2021/09/22 11:58:04;;;;;;;;;;;19.20;99.90;;;;;;8326249;28;19944;-73
2021/09/22 12:02:06;;;;;;;;;;;19.20;99.90;;;;;;8324717;28;20031;-74
2021/09/22 12:06:15;;;;;;;;;;;19.30;99.90;;;;;;8334339;28;19980;-74
2021/09/22 12:10:17;;;;;;;;;;;19.30;99.90;;;;;;8326143;28;19936;-74
2021/09/22 12:14:28;;;;;;;;;;;19.30;99.90;;;;;;8326286;28;19975;-74
2021/09/22 12:18:29;;;;;;;;;;;19.30;99.90;;;;;;8324086;28;19921;-74
2021/09/22 12:22:33;;;;;;;;;;;19.40;99.90;;;;;;8338714;28;19932;-73
2021/09/22 12:26:48;;;;;;;;;;;19.50;99.90;;;;;;8330382;28;19928;-73
2021/09/22 12:30:50;;;;;;;;;;;19.50;99.90;;;;;;8325918;28;19921;-73
2021/09/22 12:34:52;;;;;;;;;;;19.60;99.90;;;;;;8321592;28;19921;-73
2021/09/22 12:38:54;;;;;;;;;;;19.60;99.90;;;;;;8323799;28;19921;-74
2021/09/22 12:42:56;;;;;;;;;;;19.70;99.90;;;;;;8326260;28;19925;-74
2021/09/22 12:46:58;;;;;;;;;;;19.70;99.90;;;;;;8332874;28;20005;-74
2021/09/22 12:51:00;;;;;;;;;;;19.70;99.90;;;;;;8334794;28;19968;-74
2021/09/22 12:55:18;;;;;;;;;;;19.70;99.90;;;;;;8326067;28;20016;-74
2021/09/22 12:59:26;;;;;;;;;;;19.70;99.90;;;;;;8325783;28;19936;-73
2021/09/22 13:03:32;;;;;;;;;;;19.70;99.90;;;;;;8324845;28;19933;-73
2021/09/22 13:07:34;;;;;;;;;;;19.70;99.90;;;;;;8329888;28;19924;-74
2021/09/22 13:11:37;;;;;;;;;;;19.80;99.90;;;;;;8325327;28;19929;-73
2021/09/22 13:15:39;;;;;;;;;;;19.90;99.90;;;;;;8322395;28;19977;-74
2021/09/22 13:19:41;;;;;;;;;;;19.90;99.90;;;;;;8321745;28;19955;-74
2021/09/22 13:23:44;;;;;;;;;;;19.90;99.90;;;;;;8332479;28;20257;-73
2021/09/22 13:28:08;;;;;;;;;;;19.90;99.90;;;;;;8323473;28;19933;-73
2021/09/22 13:32:10;;;;;;;;;;;19.90;99.90;;;;;;8330389;28;19925;-76
2021/09/22 13:36:11;;;;;;;;;;;19.90;99.90;;;;;;8330672;28;20304;-74
2021/09/22 13:40:13;;;;;;;;;;;20.00;99.90;;;;;;8332119;28;20327;-74
2021/09/22 13:44:15;;;;;;;;;;;20.00;99.90;;;;;;8326454;28;20364;-74
2021/09/22 13:48:16;;;;;;;;;;;20.00;99.90;;;;;;8324796;28;19921;-74
2021/09/22 13:52:46;;;;;;;;;;;20.10;99.90;;;;;;8325594;28;19920;-74
2021/09/22 13:56:48;;;;;;;;;;;20.10;99.90;;;;;;8323506;28;19937;-73
2021/09/22 14:00:49;;;;;;;;;;;20.20;99.90;;;;;;8338535;28;19928;-74
2021/09/22 14:04:51;;;;;;;;;;;20.30;99.90;;;;;;8335912;28;20015;-74
2021/09/22 14:08:59;;;;;;;;;;;20.30;99.90;;;;;;8329762;28;19968;-73
2021/09/22 14:13:01;;;;;;;;;;;20.30;99.90;;;;;;8328365;28;19983;-73
2021/09/22 14:17:03;;;;;;;;;;;20.30;99.90;;;;;;8340199;28;19932;-73
2021/09/22 14:21:04;;;;;;;;;;;20.30;99.90;;;;;;8331965;28;20006;-73
2021/09/22 14:25:06;;;;;;;;;;;20.30;99.90;;;;;;8344658;28;20275;-73
2021/09/22 14:29:09;;;;;;;;;;;20.30;99.90;;;;;;8327297;28;19924;-74
2021/09/22 14:33:11;;;;;;;;;;;20.20;99.90;;;;;;8327034;28;20365;-73
2021/09/22 14:37:12;;;;;;;;;;;20.20;99.90;;;;;;8327966;28;19967;-74
2021/09/22 14:41:14;;;;;;;;;;;20.20;99.90;;;;;;8327701;28;20355;-73
2021/09/22 14:45:18;;;;;;;;;;;20.20;99.90;;;;;;8330145;28;19932;-73
2021/09/22 14:49:19;;;;;;;;;;;20.20;99.90;;;;;;8313269;28;19929;-73
2021/09/22 14:53:21;;;;;;;;;;;20.20;99.90;;;;;;8321080;28;19928;-71
2021/09/22 14:57:23;;;;;;;;;;;20.20;99.90;;;;;;8326938;28;20356;-71
2021/09/22 15:01:28;;;;;;;;;;;20.20;99.90;;;;;;8330097;28;20372;-71
2021/09/22 15:05:32;;;;;;;;;;;20.20;99.90;;;;;;8325976;28;19960;-71
2021/09/22 15:09:34;;;;;;;;;;;20.20;99.90;;;;;;8322934;28;19998;-71
2021/09/22 15:13:35;;;;;;;;;;;20.10;99.90;;;;;;8325357;28;20293;-71
2021/09/22 15:17:38;;;;;;;;;;;20.10;99.90;;;;;;8323851;28;20630;-71
2021/09/22 15:21:39;;;;;;;;;;;20.10;99.90;;;;;;8322974;28;19921;-71
2021/09/22 15:25:41;;;;;;;;;;;20.10;99.90;;;;;;8321943;28;19987;-71
2021/09/22 15:29:50;;;;;;;;;;;20.00;99.90;;;;;;8331945;28;20345;-71
2021/09/22 15:33:52;;;;;;;;;;;20.00;99.90;;;;;;8322950;28;19928;-71
2021/09/22 15:37:54;;;;;;;;;;;20.00;99.90;;;;;;8325599;28;20461;-71
2021/09/22 15:41:55;;;;;;;;;;;20.00;99.90;;;;;;8326625;28;19928;-72
2021/09/22 15:45:57;;;;;;;;;;;20.00;99.90;;;;;;8333476;28;19925;-71
2021/09/22 15:49:59;;;;;;;;;;;20.00;99.90;;;;;;8329422;28;19928;-71
2021/09/22 15:54:00;;;;;;;;;;;20.00;99.90;;;;;;8324868;28;19928;-71
2021/09/22 15:58:04;;;;;;;;;;;20.00;99.90;;;;;;8324618;28;19921;-71
2021/09/22 16:02:06;;;;;;;;;;;19.90;99.90;;;;;;8324776;28;19974;-71
2021/09/22 16:06:08;;;;;;;;;;;19.90;99.90;;;;;;8327990;28;19921;-71
2021/09/22 16:10:10;;;;;;;;;;;19.90;99.90;;;;;;8341816;28;19979;-71
2021/09/22 16:14:11;;;;;;;;;;;19.80;99.90;;;;;;8332454;28;19967;-73
2021/09/22 16:18:16;;;;;;;;;;;19.70;99.90;;;;;;8326539;28;19959;-73
2021/09/22 16:22:18;;;;;;;;;;;19.60;99.90;;;;;;8325879;28;19921;-73
2021/09/22 16:26:20;;;;;;;;;;;19.60;99.90;;;;;;8326589;28;20327;-74
2021/09/22 16:30:21;;;;;;;;;;;19.50;99.90;;;;;;8330192;28;19975;-73
2021/09/22 16:34:23;;;;;;;;;;;19.50;99.90;;;;;;8334746;28;19929;-73
2021/09/22 16:38:25;;;;;;;;;;;19.40;99.90;;;;;;8321881;28;19929;-73
2021/09/22 16:42:27;;;;;;;;;;;19.40;99.90;;;;;;8325939;28;19933;-73
2021/09/22 16:46:28;;;;;;;;;;;19.30;99.90;;;;;;8328238;28;19954;-74
2021/09/22 16:50:30;;;;;;;7.80;4.60;;;19.20;99.90;;;;;;8325025;28;19943;-73
2021/09/22 16:54:33;;;;;;;9.60;4.00;;;19.20;99.90;;;;;;8322701;28;20046;-74
2021/09/22 16:58:35;;;;;;;;;;;19.10;99.90;;;;;;8324234;28;20434;-73
2021/09/22 17:02:37;;;;;;;;;;;19.00;99.90;;;;;;8320954;28;19928;-74
2021/09/22 17:06:39;;;;;;;;;;;19.00;99.90;;;;;;8321990;28;20291;-73
2021/09/22 17:10:41;;;;;;;;;;;18.80;99.90;;;;;;8323374;28;20229;-73
2021/09/22 17:14:42;;;;;;;;;;;18.70;99.90;;;;;;8321341;28;19921;-73
2021/09/22 17:18:44;;;;;;;10.60;4.80;;;18.70;99.90;;;;;;8327846;28;19928;-73
2021/09/22 17:22:46;;;;;;;;;;;18.60;99.90;;;;;;8324583;28;19925;-73
2021/09/22 17:26:49;;;;;;;;;;;18.50;99.90;;;;;;8324870;28;19925;-73
2021/09/22 17:30:51;;;;;;;10.45;4.60;;;18.40;99.90;;;;;;8329339;28;19925;-74
2021/09/22 17:34:54;;;;;;;8.00;4.00;;;18.30;99.90;;;;;;8331693;28;19968;-73
2021/09/22 17:38:56;;;;;;;8.20;4.10;;;18.20;99.90;;;;;;8334162;28;20090;-74
2021/09/22 17:42:59;;;;;;;;;;;18.20;99.90;;;;;;8336976;28;20072;-74
2021/09/22 17:47:02;;;;;;;6.63;2.93;;;18.10;99.90;;;;;;8334377;28;20061;-73
2021/09/22 17:51:08;;;;;;;6.63;2.60;;;18.00;99.90;;;;;;8331447;28;20146;-74
2021/09/22 17:55:11;;;;;;;6.18;2.40;;;17.90;99.90;;;;;;8329350;28;20708;-74
2021/09/22 17:59:13;;;;;;;;;;;17.80;99.90;;;;;;8332946;28;20393;-73
2021/09/22 18:03:15;;;;;;;;;;;17.80;99.90;;;;;;8336535;28;19927;-73
2021/09/22 18:07:17;;;;;;;;;;;17.60;99.90;;;;;;8333578;28;19921;-74
2021/09/22 18:11:19;;;;;;;;;;;17.60;99.90;;;;;;8332291;28;19975;-73
2021/09/22 18:15:20;;;;;;;;;;;17.50;99.90;;;;;;8330318;28;19925;-73
2021/09/22 18:19:22;;;;;;;;;;;17.40;99.90;;;;;;8330965;28;19921;-73
2021/09/22 18:23:24;;;;;;;;;;;17.30;99.90;;;;;;8333630;28;19931;-73
2021/09/22 18:27:25;;;;;;;;;;;17.20;99.90;;;;;;8340006;28;19959;-75
2021/09/22 18:31:31;;;;;;;;;;;17.10;99.90;;;;;;8331626;28;19929;-73
2021/09/22 18:35:34;;;;;;;;;;;17.00;99.90;;;;;;8335795;28;19925;-73
2021/09/22 18:39:36;;;;;;;;;;;16.90;99.90;;;;;;8333089;28;19928;-73
2021/09/22 18:43:37;;;;;;;;;;;16.80;99.90;;;;;;8331884;28;20023;-73
2021/09/22 18:47:39;;;;;;;7.45;3.35;;;16.70;99.90;;;;;;8343156;28;20420;-74
2021/09/22 18:51:41;;;;;;;;;;;16.60;99.90;;;;;;8341545;28;20081;-74
2021/09/22 18:55:43;;;;;;;;;;;16.60;99.90;;;;;;8340441;28;20280;-74
2021/09/22 18:59:48;;;;;;;;;;;16.50;99.90;;;;;;8336993;28;19928;-73
2021/09/22 19:03:50;;;;;;;;;;;16.40;99.90;;;;;;8334991;28;19925;-73
2021/09/22 19:07:52;;;;;;;5.72;3.30;;;16.30;99.90;;;;;;8331856;28;20465;-74
2021/09/22 19:11:59;;;;;;;6.57;3.45;;;16.20;99.90;;;;;;8340204;28;20058;-73
2021/09/22 19:16:01;;;;;;;6.50;3.10;;;16.10;99.90;;;;;;8334918;28;20416;-74
2021/09/22 19:20:04;;;;;;;7.80;3.33;;;16.10;99.90;;;;;;8336954;28;20488;-73
2021/09/22 19:24:06;;;;;;;8.40;3.40;;;16.00;99.90;;;;;;8333613;28;20041;-74
2021/09/22 19:28:08;;;;;;;10.43;3.55;;;16.00;99.90;;;;;;8342345;28;20060;-74
2021/09/22 19:32:11;;;;;;;8.35;3.90;;;15.90;99.90;;;;;;8336828;28;20068;-73
2021/09/22 19:36:13;;;;;;;7.60;3.95;;;15.80;99.90;;;;;;8336790;28;20041;-74
2021/09/22 19:40:14;;;;;;;12.93;5.03;;;15.80;99.90;;;;;;8337895;28;20091;-73
2021/09/22 19:44:16;;;;;;;9.05;4.57;;;15.80;99.90;;;;;;8340421;28;20548;-73
2021/09/22 19:48:18;;;;;;;9.68;4.70;;;15.70;99.90;;;;;;8335747;28;20385;-73
2021/09/22 19:52:20;;;;;;;9.35;4.47;;;15.60;99.90;;;;;;8339466;28;20096;-74
2021/09/22 19:56:25;;;;;;;7.00;4.00;;;15.60;99.90;;;;;;8339173;28;20660;-74
2021/09/22 20:00:26;;;;;;;8.63;4.22;;;15.50;99.90;;;;;;8337989;28;20492;-74
2021/09/22 20:04:32;;;;;;;9.25;4.65;;;15.40;99.90;;;;;;8337886;28;20448;-73
2021/09/22 20:08:34;;;;;;;11.15;4.30;;;15.30;99.90;;;;;;8338329;28;20041;-74
2021/09/22 20:12:37;;;;;;;7.22;4.18;;;15.30;99.90;;;;;;8335418;28;20057;-73
2021/09/22 20:16:39;;;;;;;6.82;4.20;;;15.20;99.90;;;;;;8332062;28;20049;-74
2021/09/22 20:20:41;;;;;;;7.90;4.03;;;15.20;99.90;;;;;;8335474;28;20045;-73
2021/09/22 20:24:43;;;;;;;9.75;4.38;;;15.10;99.90;;;;;;8332647;28;20041;-74
2021/09/22 20:28:47;;;;;;;9.82;5.15;;;15.00;99.90;;;;;;8333866;28;20045;-73
2021/09/22 20:32:48;;;;;;;8.98;5.18;;;15.00;99.90;;;;;;8334425;28;20064;-74
2021/09/22 20:36:50;;;;;;;8.23;4.55;;;14.90;99.90;;;;;;8331751;28;20053;-73
2021/09/22 20:40:52;;;;;;;10.75;6.13;;;14.80;99.90;;;;;;8337017;28;20049;-73
2021/09/22 20:44:54;;;;;;;10.00;5.30;;;14.70;99.90;;;;;;8335858;28;19927;-73
2021/09/22 20:48:56;;;;;;;10.43;5.47;;;14.60;99.90;;;;;;8333135;28;19921;-73
2021/09/22 20:52:57;;;;;;;;;;;14.60;99.90;;;;;;8338156;28;19957;-73
2021/09/22 20:56:59;;;;;;;;;;;14.50;99.90;;;;;;8339494;28;20059;-74
2021/09/22 21:01:01;;;;;;;;;;;14.50;99.90;;;;;;8337189;28;19928;-73
2021/09/22 21:05:03;;;;;;;;;;;14.40;99.90;;;;;;8355304;28;19968;-73
2021/09/22 21:09:04;;;;;;;;;;;14.30;99.90;;;;;;8355760;28;19971;-73
2021/09/22 21:13:06;;;;;;;;;;;14.30;99.90;;;;;;8359729;28;20313;-73
2021/09/22 21:17:08;;;;;;;;;;;14.30;99.90;;;;;;8360293;28;19921;-73
2021/09/22 21:21:09;;;;;;;;;;;14.20;99.90;;;;;;8349687;28;20003;-73
2021/09/22 21:25:11;;;;;;;;;;;14.20;99.90;;;;;;8356206;28;19921;-73
2021/09/22 21:29:13;;;;;;;;;;;14.10;99.90;;;;;;8359421;28;19920;-73
2021/09/22 21:33:14;;;;;;;;;;;14.10;99.90;;;;;;8357628;28;20014;-73
2021/09/22 21:37:16;;;;;;;;;;;14.10;99.90;;;;;;8354075;28;19920;-73
2021/09/22 21:41:18;;;;;;;;;;;14.00;99.90;;;;;;8357880;28;19924;-73
2021/09/22 21:45:20;;;;;;;;;;;14.00;99.90;;;;;;8356438;28;19932;-73
2021/09/22 21:49:21;;;;;;;;;;;13.90;99.90;;;;;;8348029;28;19947;-73
2021/09/22 21:53:23;;;;;;;;;;;13.90;99.90;;;;;;8354918;28;19974;-73
2021/09/22 21:57:25;;;;;;;;;;;13.90;99.90;;;;;;8357328;28;20272;-74
2021/09/22 22:01:27;;;;;;;;;;;13.80;99.90;;;;;;8352998;28;19972;-73
2021/09/22 22:05:29;;;;;;;;;;;13.80;99.90;;;;;;8356804;28;19920;-73
2021/09/22 22:09:30;;;;;;;;;;;13.80;99.90;;;;;;8351347;28;20078;-73
2021/09/22 22:13:32;;;;;;;;;;;13.80;99.90;;;;;;8353482;28;20379;-73
2021/09/22 22:17:34;;;;;;;;;;;13.70;99.90;;;;;;8357196;28;19932;-73
2021/09/22 22:21:36;;;;;;;;;;;13.70;99.90;;;;;;8354026;28;19946;-73